sensor_id;sensor_type;location;lat;lon;timestamp;pressure;altitude;pressure_sealevel;temperature;humidity
69221;BME280;56331;51.992;20.910;2023-02-04T00:01:49;99403.38;;;21.64;33.07
69221;BME280;56331;51.992;20.910;2023-02-04T00:04:16;99407.09;;;21.62;33.02
69221;BME280;56331;51.992;20.910;2023-02-04T00:06:43;99418.39;;;21.63;32.97
69221;BME280;56331;51.992;20.910;2023-02-04T00:09:10;99418.98;;;21.62;33.04
69221;BME280;56331;51.992;20.910;2023-02-04T00:11:37;99422.92;;;21.61;32.94
69221;BME280;56331;51.992;20.910;2023-02-04T00:14:03;99419.56;;;21.62;32.97
69221;BME280;56331;51.992;20.910;2023-02-04T00:16:30;99426.25;;;21.61;33.04
69221;BME280;56331;51.992;20.910;2023-02-04T00:18:57;99434.36;;;21.60;33.01
69221;BME280;56331;51.992;20.910;2023-02-04T00:21:23;99443.27;;;21.59;32.92
69221;BME280;56331;51.992;20.910;2023-02-04T00:23:50;99443.47;;;21.60;32.98
69221;BME280;56331;51.992;20.910;2023-02-04T00:26:17;99452.17;;;21.59;32.92
69221;BME280;56331;51.992;20.910;2023-02-04T00:28:43;99458.86;;;21.58;32.92
69221;BME280;56331;51.992;20.910;2023-02-04T00:31:10;99473.51;;;21.58;32.85
69221;BME280;56331;51.992;20.910;2023-02-04T00:33:36;99471.91;;;21.57;32.89
69221;BME280;56331;51.992;20.910;2023-02-04T00:36:03;99490.72;;;21.58;32.89
69221;BME280;56331;51.992;20.910;2023-02-04T00:38:30;99503.20;;;21.58;32.94
69221;BME280;56331;51.992;20.910;2023-02-04T00:40:57;99515.45;;;21.57;33.00
69221;BME280;56331;51.992;20.910;2023-02-04T00:43:23;99520.20;;;21.56;32.85
69221;BME280;56331;51.992;20.910;2023-02-04T00:45:58;99526.30;;;21.56;32.85
69221;BME280;56331;51.992;20.910;2023-02-04T00:48:28;99527.27;;;21.54;32.81
69221;BME280;56331;51.992;20.910;2023-02-04T00:50:55;99538.56;;;21.55;32.86
69221;BME280;56331;51.992;20.910;2023-02-04T00:53:21;99544.10;;;21.55;32.85
69221;BME280;56331;51.992;20.910;2023-02-04T00:55:47;99566.28;;;21.55;32.83
69221;BME280;56331;51.992;20.910;2023-02-04T00:58:14;99557.75;;;21.54;32.83
69221;BME280;56331;51.992;20.910;2023-02-04T01:00:40;99565.48;;;21.54;32.67
69221;BME280;56331;51.992;20.910;2023-02-04T01:03:07;99577.95;;;21.54;32.78
69221;BME280;56331;51.992;20.910;2023-02-04T01:05:34;99581.30;;;21.54;32.75
69221;BME280;56331;51.992;20.910;2023-02-04T01:08:00;99585.46;;;21.54;32.81
69221;BME280;56331;51.992;20.910;2023-02-04T01:10:27;99594.92;;;21.53;32.78
69221;BME280;56331;51.992;20.910;2023-02-04T01:12:54;99599.66;;;21.52;32.67
69221;BME280;56331;51.992;20.910;2023-02-04T01:15:21;99603.02;;;21.52;32.68
69221;BME280;56331;51.992;20.910;2023-02-04T01:17:48;99603.23;;;21.53;32.71
69221;BME280;56331;51.992;20.910;2023-02-04T01:20:15;99619.86;;;21.53;32.67
69221;BME280;56331;51.992;20.910;2023-02-04T01:22:42;99623.80;;;21.52;32.71
69221;BME280;56331;51.992;20.910;2023-02-04T01:25:09;99629.69;;;21.50;32.65
69221;BME280;56331;51.992;20.910;2023-02-04T01:27:35;99636.06;;;21.51;32.69
69221;BME280;56331;51.992;20.910;2023-02-04T01:30:04;99641.36;;;21.50;32.74
69221;BME280;56331;51.992;20.910;2023-02-04T01:32:30;99655.46;;;21.51;32.73
69221;BME280;56331;51.992;20.910;2023-02-04T01:34:57;99667.10;;;21.50;32.73
69221;BME280;56331;51.992;20.910;2023-02-04T01:37:24;99671.26;;;21.50;32.63
69221;BME280;56331;51.992;20.910;2023-02-04T01:39:51;99690.45;;;21.49;32.71
69221;BME280;56331;51.992;20.910;2023-02-04T01:42:18;99698.17;;;21.50;32.68
69221;BME280;56331;51.992;20.910;2023-02-04T01:44:44;99710.43;;;21.49;32.65
69221;BME280;56331;51.992;20.910;2023-02-04T01:47:11;99713.20;;;21.49;32.62
69221;BME280;56331;51.992;20.910;2023-02-04T01:49:38;99725.67;;;21.49;32.60
69221;BME280;56331;51.992;20.910;2023-02-04T01:52:05;99737.34;;;21.48;32.57
69221;BME280;56331;51.992;20.910;2023-02-04T01:54:31;99749.22;;;21.49;32.61
69221;BME280;56331;51.992;20.910;2023-02-04T01:56:58;99754.52;;;21.48;32.54
69221;BME280;56331;51.992;20.910;2023-02-04T01:59:27;99772.78;;;21.49;32.59
69221;BME280;56331;51.992;20.910;2023-02-04T02:01:54;99773.92;;;21.48;32.56
69221;BME280;56331;51.992;20.910;2023-02-04T02:04:30;99788.95;;;21.47;32.54
69221;BME280;56331;51.992;20.910;2023-02-04T02:06:56;99793.10;;;21.47;32.57
69221;BME280;56331;51.992;20.910;2023-02-04T02:09:26;99802.59;;;21.46;32.54
69221;BME280;56331;51.992;20.910;2023-02-04T02:11:54;99810.66;;;21.45;32.49
69221;BME280;56331;51.992;20.910;2023-02-04T02:14:21;99819.77;;;21.45;32.49
69221;BME280;56331;51.992;20.910;2023-02-04T02:16:48;99817.58;;;21.45;32.50
69221;BME280;56331;51.992;20.910;2023-02-04T02:19:31;99827.52;;;21.46;32.53
69221;BME280;56331;51.992;20.910;2023-02-04T02:22:05;99842.52;;;21.45;32.53
69221;BME280;56331;51.992;20.910;2023-02-04T02:24:32;99850.62;;;21.44;32.48
69221;BME280;56331;51.992;20.910;2023-02-04T02:27:02;99861.70;;;21.44;32.48
69221;BME280;56331;51.992;20.910;2023-02-04T02:29:29;99873.37;;;21.43;32.55
69221;BME280;56331;51.992;20.910;2023-02-04T02:31:56;99886.64;;;21.44;32.49
69221;BME280;56331;51.992;20.910;2023-02-04T02:34:25;99896.56;;;21.45;32.47
69221;BME280;56331;51.992;20.910;2023-02-04T02:36:52;99911.00;;;21.44;32.38
69221;BME280;56331;51.992;20.910;2023-02-04T02:39:19;99920.11;;;21.45;32.50
69221;BME280;56331;51.992;20.910;2023-02-04T02:41:47;99922.08;;;21.44;32.47
69221;BME280;56331;51.992;20.910;2023-02-04T02:44:15;99936.27;;;21.43;32.49
69221;BME280;56331;51.992;20.910;2023-02-04T02:46:43;99939.87;;;21.43;32.55
69221;BME280;56331;51.992;20.910;2023-02-04T02:49:13;99951.52;;;21.43;32.61
69221;BME280;56331;51.992;20.910;2023-02-04T02:51:40;99970.11;;;21.42;32.66
69221;BME280;56331;51.992;20.910;2023-02-04T02:54:22;99980.17;;;21.40;32.58
69221;BME280;56331;51.992;20.910;2023-02-04T02:56:49;99993.45;;;21.41;32.65
69221;BME280;56331;51.992;20.910;2023-02-04T02:59:16;99995.16;;;21.39;32.73
69221;BME280;56331;51.992;20.910;2023-02-04T03:01:44;100004.06;;;21.39;32.73
69221;BME280;56331;51.992;20.910;2023-02-04T03:04:14;100004.86;;;21.39;32.77
69221;BME280;56331;51.992;20.910;2023-02-04T03:06:42;100025.31;;;21.41;32.57
69221;BME280;56331;51.992;20.910;2023-02-04T03:09:09;100031.88;;;21.43;32.42
69221;BME280;56331;51.992;20.910;2023-02-04T03:11:36;100042.62;;;21.44;32.29
69221;BME280;56331;51.992;20.910;2023-02-04T03:14:03;100054.52;;;21.45;32.15
69221;BME280;56331;51.992;20.910;2023-02-04T03:16:31;100055.31;;;21.45;32.03
69221;BME280;56331;51.992;20.910;2023-02-04T03:18:59;100064.47;;;21.46;31.95
69221;BME280;56331;51.992;20.910;2023-02-04T03:21:26;100070.81;;;21.46;31.82
69221;BME280;56331;51.992;20.910;2023-02-04T03:23:54;100086.05;;;21.46;31.75
69221;BME280;56331;51.992;20.910;2023-02-04T03:26:23;100095.17;;;21.47;31.63
69221;BME280;56331;51.992;20.910;2023-02-04T03:28:49;100110.63;;;21.48;31.51
69221;BME280;56331;51.992;20.910;2023-02-04T03:31:16;100116.76;;;21.47;31.43
69221;BME280;56331;51.992;20.910;2023-02-04T03:33:42;100128.64;;;21.48;31.33
69221;BME280;56331;51.992;20.910;2023-02-04T03:36:09;100131.41;;;21.48;31.25
69221;BME280;56331;51.992;20.910;2023-02-04T03:38:35;100143.34;;;21.48;31.15
69221;BME280;56331;51.992;20.910;2023-02-04T03:41:02;100143.89;;;21.48;31.03
69221;BME280;56331;51.992;20.910;2023-02-04T03:43:29;100151.65;;;21.48;31.01
69221;BME280;56331;51.992;20.910;2023-02-04T03:45:55;100172.44;;;21.48;30.92
69221;BME280;56331;51.992;20.910;2023-02-04T03:48:22;100184.66;;;21.47;30.87
69221;BME280;56331;51.992;20.910;2023-02-04T03:50:48;100199.90;;;21.47;30.78
69221;BME280;56331;51.992;20.910;2023-02-04T03:53:15;100199.90;;;21.47;30.70
69221;BME280;56331;51.992;20.910;2023-02-04T03:55:42;100208.80;;;21.47;30.70
69221;BME280;56331;51.992;20.910;2023-02-04T03:58:08;100218.50;;;21.47;30.61
69221;BME280;56331;51.992;20.910;2023-02-04T04:00:34;100219.87;;;21.47;30.56
69221;BME280;56331;51.992;20.910;2023-02-04T04:03:01;100232.68;;;21.45;30.47
69221;BME280;56331;51.992;20.910;2023-02-04T04:05:28;100245.25;;;21.43;30.76
69221;BME280;56331;51.992;20.910;2023-02-04T04:07:54;100261.08;;;21.42;31.03
69221;BME280;56331;51.992;20.910;2023-02-04T04:10:20;100255.89;;;21.40;30.99
69221;BME280;56331;51.992;20.910;2023-02-04T04:12:47;100272.52;;;21.40;31.03
69221;BME280;56331;51.992;20.910;2023-02-04T04:15:13;100281.97;;;21.39;31.25
69221;BME280;56331;51.992;20.910;2023-02-04T04:17:40;100288.89;;;21.39;31.33
69221;BME280;56331;51.992;20.910;2023-02-04T04:20:10;100292.25;;;21.39;31.30
69221;BME280;56331;51.992;20.910;2023-02-04T04:22:38;100296.18;;;21.38;31.27
69221;BME280;56331;51.992;20.910;2023-02-04T04:25:05;100311.94;;;21.37;31.18
69221;BME280;56331;51.992;20.910;2023-02-04T04:27:32;100315.07;;;21.36;31.16
69221;BME280;56331;51.992;20.910;2023-02-04T04:29:58;100319.80;;;21.35;31.20
69221;BME280;56331;51.992;20.910;2023-02-04T04:32:25;100338.14;;;21.34;31.25
69221;BME280;56331;51.992;20.910;2023-02-04T04:34:51;100337.91;;;21.33;31.23
69221;BME280;56331;51.992;20.910;2023-02-04T04:37:18;100343.69;;;21.34;31.23
69221;BME280;56331;51.992;20.910;2023-02-04T04:39:44;100358.70;;;21.33;31.27
69221;BME280;56331;51.992;20.910;2023-02-04T04:42:30;100372.55;;;21.33;31.22
69221;BME280;56331;51.992;20.910;2023-02-04T04:44:56;100382.25;;;21.33;31.24
69221;BME280;56331;51.992;20.910;2023-02-04T04:47:23;100386.41;;;21.33;31.30
69221;BME280;56331;51.992;20.910;2023-02-04T04:49:49;100395.84;;;21.32;31.33
69221;BME280;56331;51.992;20.910;2023-02-04T04:52:17;100404.16;;;21.32;31.34
69221;BME280;56331;51.992;20.910;2023-02-04T04:54:44;100417.44;;;21.32;31.35
69221;BME280;56331;51.992;20.910;2023-02-04T04:57:10;100420.79;;;21.32;31.30
69221;BME280;56331;51.992;20.910;2023-02-04T04:59:37;100432.12;;;21.33;31.30
69221;BME280;56331;51.992;20.910;2023-02-04T05:02:03;100440.98;;;21.32;31.37
69221;BME280;56331;51.992;20.910;2023-02-04T05:04:30;100447.91;;;21.32;31.31
69221;BME280;56331;51.992;20.910;2023-02-04T05:06:56;100450.46;;;21.31;31.33
69221;BME280;56331;51.992;20.910;2023-02-04T05:09:23;100457.62;;;21.32;31.28
69221;BME280;56331;51.992;20.910;2023-02-04T05:11:49;100465.13;;;21.32;31.22
69221;BME280;56331;51.992;20.910;2023-02-04T05:14:15;100475.62;;;21.32;31.30
69221;BME280;56331;51.992;20.910;2023-02-04T05:16:42;100478.66;;;21.33;31.35
69221;BME280;56331;51.992;20.910;2023-02-04T05:19:08;100492.02;;;21.31;31.42
69221;BME280;56331;51.992;20.910;2023-02-04T05:21:35;100506.45;;;21.31;31.38
69221;BME280;56331;51.992;20.910;2023-02-04T05:24:01;100512.58;;;21.30;31.33
69221;BME280;56331;51.992;20.910;2023-02-04T05:26:30;100522.51;;;21.31;31.38
69221;BME280;56331;51.992;20.910;2023-02-04T05:29:00;100526.44;;;21.30;31.48
69221;BME280;56331;51.992;20.910;2023-02-04T05:31:26;100543.29;;;21.31;31.47
69221;BME280;56331;51.992;20.910;2023-02-04T05:33:55;100549.98;;;21.30;31.47
69221;BME280;56331;51.992;20.910;2023-02-04T05:36:21;100555.76;;;21.31;31.50
69221;BME280;56331;51.992;20.910;2023-02-04T05:38:47;100553.56;;;21.31;31.44
69221;BME280;56331;51.992;20.910;2023-02-04T05:41:14;100561.62;;;21.30;31.49
69221;BME280;56331;51.992;20.910;2023-02-04T05:43:40;100564.97;;;21.29;31.55
69221;BME280;56331;51.992;20.910;2023-02-04T05:46:09;100569.39;;;21.30;31.56
69221;BME280;56331;51.992;20.910;2023-02-04T05:48:36;100577.70;;;21.30;31.47
69221;BME280;56331;51.992;20.910;2023-02-04T05:51:02;100583.78;;;21.30;31.51
69221;BME280;56331;51.992;20.910;2023-02-04T05:53:29;100594.06;;;21.29;31.52
69221;BME280;56331;51.992;20.910;2023-02-04T05:55:56;100613.23;;;21.28;31.62
69221;BME280;56331;51.992;20.910;2023-02-04T05:58:24;100621.20;;;21.30;31.57
69221;BME280;56331;51.992;20.910;2023-02-04T06:00:53;100627.89;;;21.29;31.61
69221;BME280;56331;51.992;20.910;2023-02-04T06:03:19;100635.40;;;21.28;31.56
69221;BME280;56331;51.992;20.910;2023-02-04T06:05:46;100647.87;;;21.28;31.28
69221;BME280;56331;51.992;20.910;2023-02-04T06:08:12;100661.72;;;21.28;31.10
69221;BME280;56331;51.992;20.910;2023-02-04T06:10:42;100670.52;;;21.30;31.01
69221;BME280;56331;51.992;20.910;2023-02-04T06:13:08;100675.23;;;21.30;30.91
69221;BME280;56331;51.992;20.910;2023-02-04T06:15:35;100684.13;;;21.29;30.82
69221;BME280;56331;51.992;20.910;2023-02-04T06:18:01;100691.86;;;21.30;30.75
69221;BME280;56331;51.992;20.910;2023-02-04T06:20:28;100702.63;;;21.31;30.62
69221;BME280;56331;51.992;20.910;2023-02-04T06:22:54;100707.94;;;21.30;30.55
69221;BME280;56331;51.992;20.910;2023-02-04T06:25:21;100719.83;;;21.31;30.43
69221;BME280;56331;51.992;20.910;2023-02-04T06:27:48;100724.80;;;21.31;30.38
69221;BME280;56331;51.992;20.910;2023-02-04T06:30:15;100730.56;;;21.32;30.30
69221;BME280;56331;51.992;20.910;2023-02-04T06:32:42;100735.87;;;21.31;30.21
69221;BME280;56331;51.992;20.910;2023-02-04T06:35:09;100738.42;;;21.30;30.13
69221;BME280;56331;51.992;20.910;2023-02-04T06:37:38;100751.92;;;21.32;30.09
69221;BME280;56331;51.992;20.910;2023-02-04T06:40:05;100753.89;;;21.31;29.99
69221;BME280;56331;51.992;20.910;2023-02-04T06:42:33;100767.75;;;21.31;29.96
69221;BME280;56331;51.992;20.910;2023-02-04T06:45:00;100766.36;;;21.31;29.97
69221;BME280;56331;51.992;20.910;2023-02-04T06:47:26;100775.83;;;21.30;29.86
69221;BME280;56331;51.992;20.910;2023-02-04T06:49:53;100773.05;;;21.30;29.72
69221;BME280;56331;51.992;20.910;2023-02-04T06:52:19;100781.37;;;21.30;29.63
69221;BME280;56331;51.992;20.910;2023-02-04T06:54:45;100783.56;;;21.31;29.58
69221;BME280;56331;51.992;20.910;2023-02-04T06:57:12;100794.65;;;21.31;29.55
69221;BME280;56331;51.992;20.910;2023-02-04T06:59:39;100795.22;;;21.30;29.52
69221;BME280;56331;51.992;20.910;2023-02-04T07:02:09;100808.23;;;21.30;29.53
69221;BME280;56331;51.992;20.910;2023-02-04T07:04:40;100813.78;;;21.30;29.52
69221;BME280;56331;51.992;20.910;2023-02-04T07:07:09;100835.95;;;21.30;29.53
69221;BME280;56331;51.992;20.910;2023-02-04T07:09:35;100849.00;;;21.29;29.45
69221;BME280;56331;51.992;20.910;2023-02-04T07:12:03;100849.81;;;21.30;29.38
69221;BME280;56331;51.992;20.910;2023-02-04T07:14:30;100860.66;;;21.29;29.36
69221;BME280;56331;51.992;20.910;2023-02-04T07:16:56;100860.89;;;21.30;29.36
69221;BME280;56331;51.992;20.910;2023-02-04T07:19:23;100874.20;;;21.30;29.36
69221;BME280;56331;51.992;20.910;2023-02-04T07:21:50;100884.45;;;21.30;29.23
69221;BME280;56331;51.992;20.910;2023-02-04T07:24:19;100893.59;;;21.30;29.24
69221;BME280;56331;51.992;20.910;2023-02-04T07:26:48;100889.75;;;21.29;29.19
69221;BME280;56331;51.992;20.910;2023-02-04T07:29:15;100901.07;;;21.30;29.21
69221;BME280;56331;51.992;20.910;2023-02-04T07:31:42;100910.77;;;21.30;29.19
69221;BME280;56331;51.992;20.910;2023-02-04T07:34:15;100914.12;;;21.29;29.20
69221;BME280;56331;51.992;20.910;2023-02-04T07:36:42;100919.66;;;21.29;29.08
69221;BME280;56331;51.992;20.910;2023-02-04T07:39:08;100929.13;;;21.28;29.04
69221;BME280;56331;51.992;20.910;2023-02-04T07:41:36;100940.45;;;21.29;29.07
69221;BME280;56331;51.992;20.910;2023-02-04T07:44:03;100932.70;;;21.29;29.11
69221;BME280;56331;51.992;20.910;2023-02-04T07:46:30;100942.41;;;21.29;29.17
69221;BME280;56331;51.992;20.910;2023-02-04T07:48:56;100954.88;;;21.29;29.19
69221;BME280;56331;51.992;20.910;2023-02-04T07:51:23;100956.84;;;21.28;29.29
69221;BME280;56331;51.992;20.910;2023-02-04T07:53:52;100961.57;;;21.28;29.36
69221;BME280;56331;51.992;20.910;2023-02-04T07:56:18;100965.15;;;21.28;29.43
69221;BME280;56331;51.992;20.910;2023-02-04T07:58:44;100967.92;;;21.28;29.45
69221;BME280;56331;51.992;20.910;2023-02-04T08:01:10;100965.96;;;21.29;29.52
69221;BME280;56331;51.992;20.910;2023-02-04T08:03:37;100959.03;;;21.29;29.59
69221;BME280;56331;51.992;20.910;2023-02-04T08:06:03;100969.88;;;21.28;30.12
69221;BME280;56331;51.992;20.910;2023-02-04T08:08:30;100973.20;;;21.27;30.38
69221;BME280;56331;51.992;20.910;2023-02-04T08:10:58;100979.31;;;21.27;30.46
69221;BME280;56331;51.992;20.910;2023-02-04T08:13:24;100985.20;;;21.25;30.57
69221;BME280;56331;51.992;20.910;2023-02-04T08:15:51;100985.20;;;21.25;30.64
69221;BME280;56331;51.992;20.910;2023-02-04T08:18:17;100989.66;;;21.24;30.72
69221;BME280;56331;51.992;20.910;2023-02-04T08:20:43;100989.42;;;21.23;30.95
69221;BME280;56331;51.992;20.910;2023-02-04T08:23:13;100997.73;;;21.23;31.01
69221;BME280;56331;51.992;20.910;2023-02-04T08:25:39;100994.39;;;21.23;31.01
69221;BME280;56331;51.992;20.910;2023-02-04T08:28:06;101003.02;;;21.22;31.08
69221;BME280;56331;51.992;20.910;2023-02-04T08:30:32;101011.33;;;21.22;31.22
69221;BME280;56331;51.992;20.910;2023-02-04T08:32:59;101013.28;;;21.21;31.28
69221;BME280;56331;51.992;20.910;2023-02-04T08:35:25;101020.21;;;21.21;31.38
69221;BME280;56331;51.992;20.910;2023-02-04T08:37:51;101025.75;;;21.21;31.53
69221;BME280;56331;51.992;20.910;2023-02-04T08:40:18;101030.48;;;21.20;31.65
69221;BME280;56331;51.992;20.910;2023-02-04T08:42:46;101034.06;;;21.21;31.66
69221;BME280;56331;51.992;20.910;2023-02-04T08:45:13;101042.38;;;21.21;31.87
69221;BME280;56331;51.992;20.910;2023-02-04T08:47:40;101039.88;;;21.22;31.97
69221;BME280;56331;51.992;20.910;2023-02-04T08:50:08;101037.11;;;21.22;31.99
69221;BME280;56331;51.992;20.910;2023-02-04T08:52:35;101048.19;;;21.22;32.05
69221;BME280;56331;51.992;20.910;2023-02-04T08:55:02;101058.13;;;21.23;32.27
69221;BME280;56331;51.992;20.910;2023-02-04T08:57:29;101056.50;;;21.22;32.23
69221;BME280;56331;51.992;20.910;2023-02-04T08:59:55;101063.43;;;21.22;32.49
69221;BME280;56331;51.992;20.910;2023-02-04T09:02:21;101065.86;;;21.24;32.64
69221;BME280;56331;51.992;20.910;2023-02-04T09:04:53;101074.75;;;21.23;33.12
69221;BME280;56331;51.992;20.910;2023-02-04T09:07:19;101086.65;;;21.24;33.40
69221;BME280;56331;51.992;20.910;2023-02-04T09:09:46;101078.09;;;21.23;33.46
69221;BME280;56331;51.992;20.910;2023-02-04T09:12:13;101088.37;;;21.22;33.34
69221;BME280;56331;51.992;20.910;2023-02-04T09:14:39;101093.91;;;21.22;33.45
69221;BME280;56331;51.992;20.910;2023-02-04T09:17:06;101099.12;;;21.24;33.63
69221;BME280;56331;51.992;20.910;2023-02-04T09:19:35;101102.22;;;21.22;33.67
69221;BME280;56331;51.992;20.910;2023-02-04T09:22:21;101116.08;;;21.22;33.69
69221;BME280;56331;51.992;20.910;2023-02-04T09:24:49;101119.90;;;21.24;33.84
69221;BME280;56331;51.992;20.910;2023-02-04T09:27:15;101114.12;;;21.23;34.00
69221;BME280;56331;51.992;20.910;2023-02-04T09:29:42;101113.20;;;21.25;34.18
69221;BME280;56331;51.992;20.910;2023-02-04T09:32:08;101112.97;;;21.24;34.50
69221;BME280;56331;51.992;20.910;2023-02-04T09:34:34;101114.29;;;21.26;34.05
69221;BME280;56331;51.992;20.910;2023-02-04T09:37:01;101116.75;;;21.28;33.42
69221;BME280;56331;51.992;20.910;2023-02-04T09:39:27;101112.26;;;21.29;32.98
69221;BME280;56331;51.992;20.910;2023-02-04T09:41:54;101111.14;;;21.30;32.67
69221;BME280;56331;51.992;20.910;2023-02-04T09:44:23;101116.92;;;21.31;32.29
69221;BME280;56331;51.992;20.910;2023-02-04T09:46:53;101114.39;;;21.32;31.97
69221;BME280;56331;51.992;20.910;2023-02-04T09:49:20;101109.69;;;21.33;31.62
69221;BME280;56331;51.992;20.910;2023-02-04T09:51:47;101119.93;;;21.32;31.27
69221;BME280;56331;51.992;20.910;2023-02-04T09:54:17;101126.31;;;21.33;31.17
69221;BME280;56331;51.992;20.910;2023-02-04T09:56:44;101132.67;;;21.33;31.01
69221;BME280;56331;51.992;20.910;2023-02-04T09:59:17;101134.63;;;21.33;30.90
69221;BME280;56331;51.992;20.910;2023-02-04T10:02:01;101134.87;;;21.34;30.68
69221;BME280;56331;51.992;20.910;2023-02-04T10:04:28;101134.87;;;21.34;31.30
69221;BME280;56331;51.992;20.910;2023-02-04T10:06:55;101145.95;;;21.34;32.12
69221;BME280;56331;51.992;20.910;2023-02-04T10:09:25;101145.72;;;21.33;32.59
69221;BME280;56331;51.992;20.910;2023-02-04T10:11:52;101155.96;;;21.32;33.09
69221;BME280;56331;51.992;20.910;2023-02-04T10:14:20;101155.96;;;21.32;33.46
69221;BME280;56331;51.992;20.910;2023-02-04T10:16:51;101147.64;;;21.32;33.89
69221;BME280;56331;51.992;20.910;2023-02-04T10:19:18;101149.61;;;21.32;34.08
69221;BME280;56331;51.992;20.910;2023-02-04T10:21:45;101161.27;;;21.31;34.10
69221;BME280;56331;51.992;20.910;2023-02-04T10:24:20;101160.12;;;21.32;33.89
69221;BME280;56331;51.992;20.910;2023-02-04T10:26:49;101160.69;;;21.32;33.90
69221;BME280;56331;51.992;20.910;2023-02-04T10:29:18;101160.12;;;21.32;34.21
69221;BME280;56331;51.992;20.910;2023-02-04T10:31:53;101165.66;;;21.32;34.11
69221;BME280;56331;51.992;20.910;2023-02-04T10:34:31;101168.19;;;21.31;34.10
69221;BME280;56331;51.992;20.910;2023-02-04T10:36:53;101168.43;;;21.32;34.25
69221;BME280;56331;51.992;20.910;2023-02-04T10:39:24;101159.31;;;21.32;34.12
69221;BME280;56331;51.992;20.910;2023-02-04T10:42:00;101169.58;;;21.31;34.06
69221;BME280;56331;51.992;20.910;2023-02-04T10:44:26;101179.52;;;21.32;33.95
69221;BME280;56331;51.992;20.910;2023-02-04T10:47:14;101168.43;;;21.32;34.32
69221;BME280;56331;51.992;20.910;2023-02-04T10:49:35;101173.16;;;21.32;34.69
69221;BME280;56331;51.992;20.910;2023-02-04T10:52:15;101179.52;;;21.32;34.75
69221;BME280;56331;51.992;20.910;2023-02-04T10:54:36;101177.02;;;21.33;34.87
69221;BME280;56331;51.992;20.910;2023-02-04T10:57:29;101175.63;;;21.33;34.92
69221;BME280;56331;51.992;20.910;2023-02-04T10:59:55;101178.64;;;21.34;34.79
69221;BME280;56331;51.992;20.910;2023-02-04T11:07:38;101201.89;;;21.36;34.84
69221;BME280;56331;51.992;20.910;2023-02-04T11:10:05;101203.52;;;21.37;34.69
69221;BME280;56331;51.992;20.910;2023-02-04T11:13:05;101204.66;;;21.36;34.83
69221;BME280;56331;51.992;20.910;2023-02-04T11:18:10;101198.79;;;21.37;34.95
69221;BME280;56331;51.992;20.910;2023-02-04T11:20:34;101203.82;;;21.38;35.11
69221;BME280;56331;51.992;20.910;2023-02-04T11:39:35;101217.10;;;21.38;35.45
69221;BME280;56331;51.992;20.910;2023-02-04T11:42:14;101212.14;;;21.38;35.38
69221;BME280;56331;51.992;20.910;2023-02-04T11:44:34;101217.92;;;21.39;35.63
69221;BME280;56331;51.992;20.910;2023-02-04T11:47:01;101217.34;;;21.39;35.77
69221;BME280;56331;51.992;20.910;2023-02-04T11:49:29;101210.41;;;21.39;35.67
69221;BME280;56331;51.992;20.910;2023-02-04T11:52:10;101207.64;;;21.39;35.74
69221;BME280;56331;51.992;20.910;2023-02-04T11:54:34;101215.95;;;21.39;36.01
69221;BME280;56331;51.992;20.910;2023-02-04T11:57:01;101216.47;;;21.41;36.33
69221;BME280;56331;51.992;20.910;2023-02-04T11:59:27;101212.00;;;21.43;37.01
69221;BME280;56331;51.992;20.910;2023-02-04T12:02:05;101215.89;;;21.42;36.67
69221;BME280;56331;51.992;20.910;2023-02-04T12:04:37;101221.44;;;21.42;35.43
69221;BME280;56331;51.992;20.910;2023-02-04T12:07:04;101230.02;;;21.43;34.80
69221;BME280;56331;51.992;20.910;2023-02-04T12:09:31;101226.10;;;21.44;34.36
69221;BME280;56331;51.992;20.910;2023-02-04T12:11:59;101233.84;;;21.45;34.16
69221;BME280;56331;51.992;20.910;2023-02-04T12:14:40;101234.66;;;21.45;33.88
69221;BME280;56331;51.992;20.910;2023-02-04T12:17:14;101236.89;;;21.46;33.61
69221;BME280;56331;51.992;20.910;2023-02-04T12:19:39;101233.84;;;21.45;33.33
69221;BME280;56331;51.992;20.910;2023-02-04T12:22:06;101233.84;;;21.45;33.28
69221;BME280;56331;51.992;20.910;2023-02-04T12:24:34;101238.00;;;21.45;33.09
69221;BME280;56331;51.992;20.910;2023-02-04T12:27:01;101254.33;;;21.46;32.93
69221;BME280;56331;51.992;20.910;2023-02-04T12:29:28;101243.24;;;21.46;32.69
69221;BME280;56331;51.992;20.910;2023-02-04T12:31:56;101250.41;;;21.47;32.56
69221;BME280;56331;51.992;20.910;2023-02-04T12:34:23;101248.45;;;21.48;33.02
69221;BME280;56331;51.992;20.910;2023-02-04T12:36:50;101247.64;;;21.47;33.45
69221;BME280;56331;51.992;20.910;2023-02-04T12:39:16;101249.60;;;21.47;33.74
69221;BME280;56331;51.992;20.910;2023-02-04T12:41:42;101266.23;;;21.47;33.81
69221;BME280;56331;51.992;20.910;2023-02-04T12:44:10;101262.65;;;21.46;33.88
69221;BME280;56331;51.992;20.910;2023-02-04T12:46:36;101260.45;;;21.46;33.88
69221;BME280;56331;51.992;20.910;2023-02-04T12:49:05;101262.38;;;21.45;33.89
69221;BME280;56331;51.992;20.910;2023-02-04T12:51:32;101261.84;;;21.46;33.97
69221;BME280;56331;51.992;20.910;2023-02-04T12:53:58;101261.84;;;21.46;34.67
69221;BME280;56331;51.992;20.910;2023-02-04T12:56:25;101263.22;;;21.46;35.68
69221;BME280;56331;51.992;20.910;2023-02-04T12:58:51;101264.84;;;21.47;36.27
69221;BME280;56331;51.992;20.910;2023-02-04T13:01:18;101264.20;;;21.50;36.50
69221;BME280;56331;51.992;20.910;2023-02-04T13:03:44;101269.69;;;21.52;36.28
69221;BME280;56331;51.992;20.910;2023-02-04T13:06:11;101264.48;;;21.51;35.24
69221;BME280;56331;51.992;20.910;2023-02-04T13:08:37;101267.73;;;21.53;34.85
69221;BME280;56331;51.992;20.910;2023-02-04T13:11:04;101271.89;;;21.53;34.83